createdAt,value
2019-03-03T00:03:52.407Z,12.20
2019-03-03T00:07:23.028Z,12.10
2019-03-03T00:10:36.859Z,12.10
2019-03-03T00:16:28.889Z,12.20
2019-03-03T00:22:35.297Z,12.00
2019-03-03T00:26:01.084Z,11.90
2019-03-03T00:29:28.874Z,11.70
2019-03-03T00:32:35.886Z,11.60
2019-03-03T00:35:31.519Z,11.60
2019-03-03T00:41:26.213Z,11.60
2019-03-03T00:44:38.085Z,11.60
2019-03-03T00:47:49.796Z,11.60
2019-03-03T00:51:09.023Z,11.60
2019-03-03T00:54:04.459Z,11.60
2019-03-03T00:57:13.950Z,11.50
2019-03-03T01:00:03.431Z,11.40
2019-03-03T01:02:58.775Z,11.50
2019-03-03T01:06:22.549Z,11.40
2019-03-03T01:09:25.886Z,11.40
2019-03-03T01:12:40.903Z,11.50
2019-03-03T01:15:39.270Z,11.60
2019-03-03T01:18:44.864Z,11.50
2019-03-03T01:21:46.266Z,11.50
2019-03-03T01:24:36.912Z,11.50
2019-03-03T01:27:08.846Z,11.60
2019-03-03T01:29:53.646Z,11.60
2019-03-03T01:32:38.805Z,11.60
2019-03-03T01:35:34.025Z,11.60
2019-03-03T01:38:19.898Z,11.60
2019-03-03T01:41:10.153Z,11.70
2019-03-03T01:44:00.692Z,11.60
2019-03-03T01:47:15.261Z,11.50
2019-03-03T01:50:16.927Z,11.30
2019-03-03T01:53:04.444Z,11.30
2019-03-03T01:56:03.749Z,11.40
2019-03-03T01:58:54.989Z,11.40
2019-03-03T02:01:38.610Z,11.40
2019-03-03T02:04:15.897Z,11.50
2019-03-03T02:06:47.420Z,11.60
2019-03-03T02:09:40.181Z,11.50
2019-03-03T02:12:30.241Z,11.40
2019-03-03T02:15:13.521Z,11.30
2019-03-03T02:17:53.951Z,11.30
2019-03-03T02:20:26.762Z,11.40
2019-03-03T02:22:57.303Z,11.40
2019-03-03T02:25:30.780Z,11.50
2019-03-03T02:28:30.826Z,11.40
2019-03-03T02:31:10.098Z,11.40
2019-03-03T02:33:59.639Z,11.30
2019-03-03T02:36:31.907Z,11.40
2019-03-03T02:39:06.917Z,11.40
2019-03-03T02:41:40.381Z,11.50
2019-03-03T02:44:12.504Z,11.50
2019-03-03T02:47:03.948Z,11.60
2019-03-03T02:49:37.928Z,11.70
2019-03-03T02:52:11.433Z,11.70
2019-03-03T02:54:43.265Z,11.80
2019-03-03T02:57:14.285Z,11.70
2019-03-03T02:59:45.304Z,11.70
2019-03-03T03:02:32.858Z,11.50
2019-03-03T03:05:07.114Z,11.50
2019-03-03T03:08:09.354Z,11.60
2019-03-03T03:11:17.372Z,11.60
2019-03-03T03:14:14.497Z,11.50
2019-03-03T03:17:09.023Z,11.40
2019-03-03T03:19:53.010Z,11.40
2019-03-03T03:22:38.505Z,11.40
2019-03-03T03:25:21.809Z,11.40
2019-03-03T03:28:34.201Z,11.30
2019-03-03T03:31:24.590Z,11.30
2019-03-03T03:34:25.304Z,11.30
2019-03-03T03:37:07.612Z,11.20
2019-03-03T03:40:02.279Z,11.20
2019-03-03T03:43:05.259Z,11.20
2019-03-03T03:45:53.231Z,11.20
2019-03-03T03:48:43.612Z,11.20
2019-03-03T03:51:49.654Z,11.10
2019-03-03T03:54:52.346Z,11.20
2019-03-03T03:57:44.404Z,11.10
2019-03-03T04:00:25.718Z,11.00
2019-03-03T04:03:17.524Z,11.00
2019-03-03T04:06:09.689Z,10.90
2019-03-03T04:08:51.710Z,10.80
2019-03-03T04:11:37.228Z,10.80
2019-03-03T04:14:32.052Z,10.70
2019-03-03T04:17:20.814Z,10.70
2019-03-03T04:20:09.788Z,10.80
2019-03-03T04:22:47.725Z,10.70
2019-03-03T04:25:39.660Z,10.70
2019-03-03T04:28:23.332Z,10.70
2019-03-03T04:31:31.841Z,10.60
2019-03-03T04:34:19.678Z,10.60
2019-03-03T04:37:11.123Z,10.60
2019-03-03T04:40:03.719Z,10.60
2019-03-03T04:43:01.995Z,10.50
2019-03-03T04:45:58.082Z,10.50
2019-03-03T04:48:45.236Z,10.50
2019-03-03T04:51:40.217Z,10.50
2019-03-03T04:54:19.236Z,10.50
2019-03-03T04:57:40.134Z,10.50
2019-03-03T05:00:18.897Z,10.50
2019-03-03T05:03:01.930Z,10.60
2019-03-03T05:05:50.886Z,10.60
2019-03-03T05:08:39.813Z,10.60
2019-03-03T05:11:38.012Z,10.70
2019-03-03T05:14:23.464Z,10.70
2019-03-03T05:17:10.162Z,10.60
2019-03-03T05:19:48.180Z,10.60
2019-03-03T05:22:18.156Z,10.60
2019-03-03T05:24:48.346Z,10.60
2019-03-03T05:27:18.292Z,10.60
2019-03-03T05:29:48.482Z,10.70
2019-03-03T05:32:18.424Z,10.70
2019-03-03T05:34:48.617Z,10.70
2019-03-03T05:37:18.627Z,10.70
2019-03-03T05:39:52.798Z,10.70
2019-03-03T05:42:24.616Z,10.70
2019-03-03T05:44:54.644Z,10.70
2019-03-03T05:47:25.247Z,10.70
2019-03-03T05:49:55.201Z,10.70
2019-03-03T05:52:26.650Z,10.70
2019-03-03T05:54:57.011Z,10.70
2019-03-03T05:57:28.593Z,10.70
2019-03-03T06:00:00.412Z,10.70
2019-03-03T06:02:31.905Z,10.70
2019-03-03T06:05:02.206Z,10.80
2019-03-03T06:07:33.928Z,10.80
2019-03-03T06:10:04.251Z,10.80
2019-03-03T06:12:34.656Z,10.80
2019-03-03T06:15:05.486Z,10.80
2019-03-03T06:17:42.090Z,10.90
2019-03-03T06:20:14.366Z,10.80
2019-03-03T06:22:52.637Z,10.80
2019-03-03T06:25:28.846Z,10.80
2019-03-03T06:28:01.323Z,10.80
2019-03-03T06:30:37.348Z,10.80
2019-03-03T06:33:12.887Z,10.80
2019-03-03T06:40:44.419Z,10.90
2019-03-03T06:46:32.527Z,10.90
2019-03-03T06:49:42.603Z,10.90
2019-03-03T06:52:57.680Z,10.80
2019-03-03T06:55:52.696Z,10.80
2019-03-03T06:58:25.853Z,10.80
2019-03-03T07:01:29.989Z,10.90
2019-03-03T07:04:05.381Z,10.90
2019-03-03T07:06:45.080Z,10.90
2019-03-03T07:09:13.377Z,10.80
2019-03-03T07:11:43.329Z,10.80
2019-03-03T07:14:16.401Z,10.80
2019-03-03T07:16:46.225Z,10.90
2019-03-03T07:19:31.114Z,10.90
2019-03-03T07:22:45.615Z,10.90
2019-03-03T07:35:05.659Z,11.10
2019-03-03T07:37:48.039Z,11.10
2019-03-03T07:40:18.095Z,11.20
2019-03-03T07:42:48.224Z,11.20
2019-03-03T07:45:18.220Z,11.20
2019-03-03T07:47:48.164Z,11.10
2019-03-03T07:50:19.241Z,11.20
2019-03-03T07:52:49.307Z,11.30
2019-03-03T07:55:25.631Z,11.30
2019-03-03T07:58:02.309Z,11.40
2019-03-03T08:00:32.680Z,11.40
2019-03-03T08:03:02.792Z,11.40
2019-03-03T08:05:34.235Z,11.40
2019-03-03T08:08:04.514Z,11.40
2019-03-03T08:10:35.884Z,11.50
2019-03-03T08:13:09.148Z,11.50
2019-03-03T08:15:38.187Z,11.50
2019-03-03T08:18:08.947Z,11.50
2019-03-03T08:20:39.110Z,11.40
2019-03-03T08:23:09.387Z,11.40
2019-03-03T08:25:39.394Z,11.50
2019-03-03T08:28:09.719Z,11.60
2019-03-03T08:30:43.707Z,11.60
2019-03-03T08:33:16.536Z,11.60
2019-03-03T08:35:52.681Z,11.50
2019-03-03T08:38:25.168Z,11.60
2019-03-03T08:40:56.794Z,11.60
2019-03-03T08:43:52.251Z,11.60
2019-03-03T08:46:47.188Z,11.60
2019-03-03T08:49:50.569Z,11.60
2019-03-03T08:52:39.397Z,11.60
2019-03-03T08:55:36.312Z,11.70
2019-03-03T09:07:33.097Z,11.70
2019-03-03T09:11:20.851Z,11.60
2019-03-03T09:15:13.419Z,11.50
2019-03-03T09:18:25.262Z,11.50
2019-03-03T09:21:38.948Z,11.60
2019-03-03T09:45:47.927Z,11.70
2019-03-03T09:48:40.088Z,11.70
2019-03-03T09:55:35.590Z,11.80
2019-03-03T09:58:29.722Z,11.80
2019-03-03T10:01:19.438Z,11.60
2019-03-03T10:04:14.135Z,11.50
2019-03-03T10:07:23.142Z,11.40
2019-03-03T10:09:58.144Z,11.30
2019-03-03T10:12:46.057Z,11.30
2019-03-03T10:15:52.625Z,11.20
2019-03-03T10:18:42.247Z,11.10
2019-03-03T10:21:37.737Z,11.00
2019-03-03T10:24:28.390Z,11.00
2019-03-03T10:27:43.852Z,11.00
2019-03-03T10:30:45.351Z,10.90
2019-03-03T10:33:42.604Z,10.90
2019-03-03T10:36:41.079Z,10.90
2019-03-03T10:39:46.940Z,10.90
2019-03-03T10:42:41.628Z,11.00
2019-03-03T10:45:33.542Z,10.90
2019-03-03T10:48:25.266Z,11.00
2019-03-03T10:51:59.290Z,11.00
2019-03-03T10:54:58.122Z,11.10
2019-03-03T10:58:50.115Z,11.10
2019-03-03T11:02:03.063Z,11.20
2019-03-03T11:05:00.292Z,11.30
2019-03-03T11:07:59.418Z,11.40
2019-03-03T11:10:57.063Z,11.40
2019-03-03T11:14:01.346Z,11.40
2019-03-03T11:16:59.527Z,11.30
2019-03-03T11:19:47.462Z,11.20
2019-03-03T11:22:42.268Z,11.20
2019-03-03T11:25:25.184Z,11.20
2019-03-03T11:28:36.458Z,11.20
2019-03-03T11:31:27.308Z,11.20
2019-03-03T11:34:25.542Z,11.20
2019-03-03T11:37:34.503Z,11.20
2019-03-03T11:40:33.573Z,11.20
2019-03-03T11:43:21.774Z,11.30
2019-03-03T11:46:09.859Z,11.30
2019-03-03T11:49:09.830Z,11.30
2019-03-03T11:51:45.380Z,11.40
2019-03-03T11:54:41.867Z,11.50
2019-03-03T11:57:42.171Z,11.60
2019-03-03T12:00:26.129Z,11.80
2019-03-03T12:03:27.194Z,12.00
2019-03-03T12:06:31.439Z,12.10
2019-03-03T12:09:24.182Z,12.20
2019-03-03T12:12:33.268Z,12.20
2019-03-03T12:15:12.179Z,12.30
2019-03-03T12:18:03.200Z,12.50
2019-03-03T12:20:52.647Z,12.60
2019-03-03T12:24:00.270Z,12.90
2019-03-03T12:26:51.939Z,13.30
2019-03-03T12:30:37.700Z,13.70
2019-03-03T12:34:24.252Z,13.70
2019-03-03T12:37:27.815Z,13.90
2019-03-03T12:40:21.249Z,13.70
2019-03-03T12:43:13.195Z,13.70
2019-03-03T12:46:07.779Z,13.50
2019-03-03T12:48:58.773Z,13.40
2019-03-03T12:51:49.565Z,13.40
2019-03-03T12:55:10.488Z,13.40
2019-03-03T12:57:59.630Z,13.40
2019-03-03T13:01:21.304Z,13.40
2019-03-03T13:07:46.267Z,13.20
2019-03-03T13:11:07.880Z,13.20
2019-03-03T13:13:59.373Z,13.30
2019-03-03T13:16:45.474Z,13.30
2019-03-03T13:19:48.158Z,13.40
2019-03-03T13:23:13.082Z,13.40
2019-03-03T13:26:12.967Z,13.40
2019-03-03T13:32:40.163Z,13.40
2019-03-03T13:35:40.455Z,13.40
2019-03-03T13:38:41.004Z,13.40
2019-03-03T13:41:30.101Z,13.40
2019-03-03T13:44:09.312Z,13.40
2019-03-03T13:46:53.243Z,13.40
2019-03-03T13:49:24.422Z,13.40
2019-03-03T13:52:07.521Z,13.40
2019-03-03T13:55:07.341Z,13.40
2019-03-03T13:58:04.184Z,13.40
2019-03-03T14:00:43.829Z,13.30
2019-03-03T14:03:37.038Z,13.30
2019-03-03T14:06:08.900Z,13.30
2019-03-03T14:08:42.342Z,13.30
2019-03-03T14:11:25.546Z,13.30
2019-03-03T14:14:13.191Z,13.30
2019-03-03T14:17:09.865Z,13.30
2019-03-03T14:20:23.183Z,13.20
2019-03-03T14:22:51.299Z,13.20
2019-03-03T14:25:34.900Z,13.30
2019-03-03T14:28:07.396Z,13.30
2019-03-03T14:31:03.867Z,13.30
2019-03-03T14:34:02.093Z,13.30
2019-03-03T14:36:50.371Z,13.30
2019-03-03T14:39:49.244Z,13.30
2019-03-03T14:43:08.587Z,13.30
2019-03-03T14:48:48.086Z,13.40
2019-03-03T14:51:40.502Z,13.40
2019-03-03T14:54:28.263Z,13.40
2019-03-03T14:57:51.240Z,13.40
2019-03-03T15:00:50.369Z,13.40
2019-03-03T15:03:26.391Z,13.30
2019-03-03T15:06:25.008Z,13.20
2019-03-03T15:09:20.198Z,13.20
2019-03-03T15:12:39.472Z,13.10
2019-03-03T15:15:33.200Z,13.10
2019-03-03T15:18:30.001Z,13.20
2019-03-03T15:21:08.186Z,13.30
2019-03-03T15:23:53.470Z,13.50
2019-03-03T15:26:39.060Z,13.50
2019-03-03T15:29:29.881Z,13.50
2019-03-03T15:32:18.100Z,13.50
2019-03-03T15:35:47.495Z,13.60
2019-03-03T15:39:12.349Z,13.60
2019-03-03T15:42:27.084Z,13.60
2019-03-03T15:53:20.752Z,13.60
2019-03-03T15:59:30.331Z,13.60
2019-03-03T16:02:28.780Z,13.70
2019-03-03T16:05:05.544Z,13.60
2019-03-03T16:08:00.708Z,13.70
2019-03-03T16:14:43.194Z,13.70
2019-03-03T16:17:27.229Z,13.70
2019-03-03T16:20:16.161Z,13.70
2019-03-03T16:26:39.562Z,13.70
2019-03-03T16:37:30.867Z,13.60
2019-03-03T16:40:17.327Z,13.70
2019-03-03T16:43:23.671Z,13.60
2019-03-03T16:47:01.195Z,13.60
2019-03-03T16:49:43.222Z,13.60
2019-03-03T16:56:19.672Z,13.70
2019-03-03T16:59:19.334Z,13.80
2019-03-03T17:09:11.895Z,14.20
2019-03-03T17:11:58.487Z,14.30
2019-03-03T17:15:17.197Z,14.20
2019-03-03T17:25:41.374Z,14.30
2019-03-03T17:33:02.523Z,14.40
2019-03-03T17:36:34.099Z,14.10
2019-03-03T17:39:59.726Z,14.00
2019-03-03T17:42:58.230Z,14.20
2019-03-03T17:46:03.512Z,14.20
2019-03-03T17:48:43.767Z,14.10
2019-03-03T17:56:09.014Z,14.00
2019-03-03T17:59:09.251Z,13.90
2019-03-03T18:02:27.319Z,14.20
2019-03-03T18:05:43.891Z,14.00
2019-03-03T18:16:42.800Z,13.80
2019-03-03T18:20:11.213Z,13.90
2019-03-03T18:26:52.697Z,14.10
2019-03-03T18:33:37.832Z,14.30
2019-03-03T18:37:23.450Z,14.30
2019-03-03T18:40:18.741Z,14.60
2019-03-03T18:43:58.582Z,14.30
2019-03-03T18:46:57.592Z,14.40
2019-03-03T18:53:50.982Z,14.60
2019-03-03T18:56:52.382Z,14.70
2019-03-03T19:12:32.899Z,14.80
2019-03-03T19:15:53.265Z,14.60
2019-03-03T19:19:22.650Z,14.60
2019-03-03T19:26:05.532Z,14.90
2019-03-03T19:29:14.823Z,15.00
2019-03-03T19:32:44.000Z,14.80
2019-03-03T19:36:02.523Z,14.90
2019-03-03T19:39:12.980Z,14.90
2019-03-03T19:42:15.515Z,14.60
2019-03-03T19:45:40.654Z,14.30
2019-03-03T19:49:03.057Z,14.10
2019-03-03T19:52:50.573Z,13.90
2019-03-03T19:56:02.082Z,14.00
2019-03-03T20:02:26.760Z,14.80
2019-03-03T20:05:18.153Z,14.80
2019-03-03T20:08:55.522Z,15.20
2019-03-03T20:15:37.038Z,15.10
2019-03-03T20:18:41.318Z,15.20
2019-03-03T20:21:20.449Z,14.90
2019-03-03T20:24:03.518Z,14.60
2019-03-03T20:27:10.165Z,14.80
2019-03-03T20:30:25.176Z,15.30
2019-03-03T20:33:26.150Z,15.20
2019-03-03T20:36:31.231Z,14.60
2019-03-03T20:39:45.002Z,14.90
2019-03-03T20:42:37.003Z,15.20
2019-03-03T20:48:46.424Z,15.10
2019-03-03T20:54:55.229Z,15.10
2019-03-03T20:58:06.182Z,14.90
2019-03-03T21:00:59.407Z,14.70
2019-03-03T21:03:46.115Z,14.40
2019-03-03T21:06:32.579Z,14.40
2019-03-03T21:09:18.418Z,14.20
2019-03-03T21:11:53.470Z,14.10
2019-03-03T21:18:30.215Z,14.70
2019-03-03T21:21:18.683Z,14.80
2019-03-03T21:24:15.631Z,14.50
2019-03-03T21:27:29.498Z,14.50
2019-03-03T21:30:13.078Z,14.40
2019-03-03T21:33:09.669Z,14.50
2019-03-03T21:35:52.505Z,14.40
2019-03-03T21:41:39.804Z,14.40
2019-03-03T21:44:25.422Z,14.40
2019-03-03T21:47:22.058Z,14.40
2019-03-03T21:50:20.328Z,14.20
2019-03-03T21:53:32.679Z,14.00
2019-03-03T21:56:19.269Z,13.80
2019-03-03T21:58:55.094Z,13.80
2019-03-03T22:01:51.729Z,13.80
2019-03-03T22:04:36.653Z,13.90
2019-03-03T22:07:39.747Z,14.00
2019-03-03T22:10:44.844Z,14.00
2019-03-03T22:13:23.779Z,13.90
2019-03-03T22:16:20.581Z,13.90
2019-03-03T22:22:04.476Z,13.80
2019-03-03T22:24:41.181Z,14.00
2019-03-03T22:27:19.092Z,14.10
2019-03-03T22:30:24.064Z,14.10
2019-03-03T22:33:05.845Z,14.00
2019-03-03T22:36:12.159Z,13.90
2019-03-03T22:39:01.041Z,13.80
2019-03-03T22:41:47.497Z,13.80
2019-03-03T22:44:32.481Z,13.80
2019-03-03T22:47:13.508Z,13.80
2019-03-03T22:49:54.791Z,13.90
2019-03-03T22:52:49.858Z,13.80
2019-03-03T22:55:44.581Z,13.90
2019-03-03T22:58:31.651Z,13.70
2019-03-03T23:01:48.420Z,13.70
2019-03-03T23:05:20.436Z,13.70
2019-03-03T23:08:25.286Z,13.80
2019-03-03T23:11:31.935Z,13.90
2019-03-03T23:14:38.216Z,13.80
2019-03-03T23:17:46.357Z,13.70
2019-03-03T23:20:33.174Z,13.80
2019-03-03T23:23:35.821Z,13.90
2019-03-03T23:26:22.492Z,13.90
2019-03-03T23:29:23.439Z,13.90
2019-03-03T23:32:10.011Z,13.70
2019-03-03T23:34:48.705Z,13.70
2019-03-03T23:37:29.456Z,13.70
2019-03-03T23:40:28.301Z,13.60
2019-03-03T23:43:38.643Z,13.60
2019-03-03T23:46:20.919Z,13.70
2019-03-03T23:48:54.626Z,13.80
2019-03-03T23:51:51.629Z,13.70
2019-03-03T23:54:31.100Z,13.80
2019-03-03T23:57:01.450Z,13.80
2019-03-03T23:59:40.834Z,13.70
